Time;durP1;ratioP1;P1;durP2;ratioP2;P2;SDS_P1;SDS_P2;PMS_P1;PMS_P2;Temp;Humidity;BMP_temperature;BMP_pressure;BME280_temperature;BME280_humidity;BME280_pressure;Samples;Min_cycle;Max_cycle;Signal;HPM_P1;HPM_P2
2021/12/02 00:01:05;;;;;;;8.65;4.38;;;;;;;;;;4968572;28;20106;-76
2021/12/02 00:03:31;;;;;;;12.45;6.18;;;;;;;;;;4947572;29;20560;-76
2021/12/02 00:05:57;;;;;;;16.30;7.90;;;;;;;;;;4961645;29;20027;-76
2021/12/02 00:08:23;;;;;;;11.45;5.25;;;;;;;;;;4961639;29;20036;-76
2021/12/02 00:10:53;;;;;;;9.32;3.97;;;;;;;;;;4963529;28;20381;-77
2021/12/02 00:13:22;;;;;;;4.47;3.00;;;;;;;;;;4969924;28;20022;-77
2021/12/02 00:16:21;;;;;;;5.40;3.38;;;;;;;;;;4980143;28;20030;-77
2021/12/02 00:21:17;;;;;;;5.93;3.30;;;;;;;;;;4978684;28;20097;-76
2021/12/02 00:24:02;;;;;;;5.70;3.40;;;;;;;;;;4959462;29;20035;-77
2021/12/02 00:26:29;;;;;;;8.45;4.13;;;;;;;;;;4969035;28;20129;-76
2021/12/02 00:28:57;;;;;;;5.65;3.20;;;;;;;;;;4978507;28;20093;-76
2021/12/02 00:31:29;;;;;;;5.90;3.33;;;;;;;;;;4971392;28;20028;-76
2021/12/02 00:33:57;;;;;;;5.15;3.20;;;;;;;;;;4976000;28;20118;-77
2021/12/02 00:36:27;;;;;;;6.35;3.83;;;;;;;;;;4979967;28;20106;-76
2021/12/02 00:38:58;;;;;;;8.23;4.50;;;;;;;;;;4979437;28;20517;-76
2021/12/02 00:41:28;;;;;;;6.38;4.13;;;;;;;;;;4976743;28;20035;-76
2021/12/02 00:43:55;;;;;;;6.00;3.80;;;;;;;;;;4978449;28;20035;-76
2021/12/02 00:46:23;;;;;;;8.05;4.03;;;;;;;;;;4978659;28;20023;-76
2021/12/02 00:48:50;;;;;;;7.30;4.78;;;;;;;;;;4977576;28;20387;-76
2021/12/02 00:51:17;;;;;;;4.18;2.92;;;;;;;;;;4977123;28;20026;-76
2021/12/02 00:53:46;;;;;;;4.53;2.83;;;;;;;;;;4961128;28;20039;-76
2021/12/02 00:56:16;;;;;;;5.93;2.80;;;;;;;;;;4959587;28;20369;-76
2021/12/02 00:58:47;;;;;;;3.60;2.72;;;;;;;;;;4959923;29;20062;-75
2021/12/02 01:01:14;;;;;;;7.90;2.78;;;;;;;;;;4958961;29;20108;-76
2021/12/02 01:03:40;;;;;;;4.38;3.05;;;;;;;;;;4958244;28;20039;-75
2021/12/02 01:06:07;;;;;;;3.70;2.63;;;;;;;;;;4978156;28;20551;-76
2021/12/02 01:08:34;;;;;;;3.92;2.83;;;;;;;;;;4972239;28;20039;-76
2021/12/02 01:11:00;;;;;;;5.60;3.08;;;;;;;;;;4978980;28;20037;-76
2021/12/02 01:13:27;;;;;;;6.53;2.97;;;;;;;;;;4978464;28;20030;-76
2021/12/02 01:15:53;;;;;;;7.10;3.83;;;;;;;;;;4979274;28;20034;-76
2021/12/02 01:18:20;;;;;;;4.63;3.00;;;;;;;;;;4980192;28;20027;-77
2021/12/02 01:20:48;;;;;;;7.38;3.33;;;;;;;;;;4980251;28;20042;-76
2021/12/02 01:23:14;;;;;;;6.00;3.20;;;;;;;;;;4976971;28;20027;-76
2021/12/02 01:25:41;;;;;;;6.25;2.90;;;;;;;;;;4972709;28;20081;-76
2021/12/02 01:28:07;;;;;;;4.50;3.00;;;;;;;;;;4974672;28;20046;-75
2021/12/02 01:30:37;;;;;;;4.47;3.05;;;;;;;;;;4963390;28;20388;-77
2021/12/02 01:33:04;;;;;;;6.43;3.22;;;;;;;;;;4965999;28;20491;-76
2021/12/02 01:35:31;;;;;;;4.28;2.70;;;;;;;;;;4942950;29;20037;-75
2021/12/02 01:37:57;;;;;;;3.97;2.60;;;;;;;;;;4974871;28;20066;-76
2021/12/02 01:40:23;;;;;;;5.53;3.10;;;;;;;;;;4978819;28;20037;-76
2021/12/02 01:42:54;;;;;;;3.65;2.80;;;;;;;;;;4980392;28;20105;-76
2021/12/02 01:45:24;;;;;;;4.93;2.72;;;;;;;;;;4979640;28;20034;-75
2021/12/02 01:47:54;;;;;;;3.67;2.60;;;;;;;;;;4972814;28;20081;-76
2021/12/02 01:50:22;;;;;;;4.03;2.50;;;;;;;;;;4958909;28;20027;-76
2021/12/02 01:52:49;;;;;;;3.70;2.50;;;;;;;;;;4956882;28;20042;-76
2021/12/02 01:55:17;;;;;;;5.32;2.55;;;;;;;;;;4957136;29;20031;-77
2021/12/02 01:57:47;;;;;;;4.57;2.60;;;;;;;;;;4962360;28;20035;-76
2021/12/02 02:00:19;;;;;;;8.82;2.70;;;;;;;;;;4967608;28;20098;-76
2021/12/02 02:02:47;;;;;;;5.10;2.85;;;;;;;;;;4968660;28;20027;-75
2021/12/02 02:05:15;;;;;;;3.67;2.80;;;;;;;;;;4977507;28;20034;-76
2021/12/02 02:07:47;;;;;;;5.97;3.00;;;;;;;;;;4960176;28;20038;-76
2021/12/02 02:10:13;;;;;;;4.65;2.80;;;;;;;;;;4977752;28;20077;-76
2021/12/02 02:12:39;;;;;;;5.32;3.20;;;;;;;;;;4962340;28;20054;-76
2021/12/02 02:15:06;;;;;;;5.32;3.10;;;;;;;;;;4960969;28;20075;-75
2021/12/02 02:17:40;;;;;;;7.40;3.28;;;;;;;;;;4976924;28;20038;-76
2021/12/02 02:20:08;;;;;;;3.65;2.78;;;;;;;;;;4978157;28;20035;-77
2021/12/02 02:22:34;;;;;;;4.78;3.10;;;;;;;;;;4970299;28;20031;-75
2021/12/02 02:25:01;;;;;;;4.45;2.80;;;;;;;;;;4957702;28;20079;-75
2021/12/02 02:27:27;;;;;;;5.65;3.13;;;;;;;;;;4972371;28;20062;-76
2021/12/02 02:29:53;;;;;;;10.75;6.13;;;;;;;;;;4976937;28;20045;-76
2021/12/02 02:32:24;;;;;;;7.93;4.30;;;;;;;;;;4976113;28;20559;-75
2021/12/02 02:34:50;;;;;;;7.10;3.78;;;;;;;;;;4977035;28;20055;-76
2021/12/02 02:37:16;;;;;;;6.18;4.68;;;;;;;;;;4978683;28;20039;-77
2021/12/02 02:39:42;;;;;;;6.97;5.28;;;;;;;;;;4977965;28;20074;-77
2021/12/02 02:42:09;;;;;;;13.48;8.05;;;;;;;;;;4978019;28;20066;-77
2021/12/02 02:44:35;;;;;;;9.52;6.47;;;;;;;;;;4979025;28;20114;-77
2021/12/02 02:47:01;;;;;;;5.13;3.30;;;;;;;;;;4976648;28;20048;-76
2021/12/02 02:49:28;;;;;;;5.55;2.80;;;;;;;;;;4978981;28;20057;-77
2021/12/02 02:51:54;;;;;;;5.60;3.20;;;;;;;;;;4980374;28;20034;-77
2021/12/02 02:54:20;;;;;;;5.68;3.88;;;;;;;;;;4962774;28;20034;-76
2021/12/02 02:57:07;;;;;;;4.97;3.10;;;;;;;;;;4972056;28;20030;-77
2021/12/02 02:59:41;;;;;;;5.95;3.22;;;;;;;;;;4977887;28;20035;-75
2021/12/02 03:05:00;;;;;;;6.43;3.50;;;;;;;;;;4961543;28;20045;-77
2021/12/02 03:07:43;;;;;;;5.28;3.30;;;;;;;;;;4983537;28;20099;-77
2021/12/02 03:10:41;;;;;;;7.00;3.47;;;;;;;;;;4983749;28;20078;-77
2021/12/02 03:13:35;;;;;;;4.10;2.97;;;;;;;;;;4963475;29;20038;-77
2021/12/02 03:18:46;;;;;;;4.50;2.90;;;;;;;;;;4962560;28;20043;-75
2021/12/02 03:21:21;;;;;;;6.00;2.80;;;;;;;;;;4966611;28;20027;-76
2021/12/02 03:23:58;;;;;;;4.57;3.10;;;;;;;;;;4961246;29;20485;-76
2021/12/02 03:26:25;;;;;;;4.53;2.85;;;;;;;;;;4961049;28;20079;-76
2021/12/02 03:28:53;;;;;;;4.22;2.70;;;;;;;;;;4974323;28;20118;-75
2021/12/02 03:31:20;;;;;;;4.53;2.70;;;;;;;;;;4979622;28;20019;-76
2021/12/02 03:33:47;;;;;;;4.95;2.75;;;;;;;;;;4964893;28;20087;-75
2021/12/02 03:36:13;;;;;;;5.85;2.90;;;;;;;;;;4961941;28;20030;-76
2021/12/02 03:38:40;;;;;;;5.35;3.00;;;;;;;;;;4961144;29;20477;-75
2021/12/02 03:41:06;;;;;;;5.25;2.60;;;;;;;;;;4968053;28;20027;-75
2021/12/02 03:43:36;;;;;;;5.45;2.67;;;;;;;;;;4979784;28;20027;-75
2021/12/02 03:46:02;;;;;;;5.45;3.08;;;;;;;;;;4981418;28;20049;-76
2021/12/02 03:48:28;;;;;;;5.78;2.80;;;;;;;;;;4981758;28;20035;-76
2021/12/02 03:50:57;;;;;;;4.07;2.40;;;;;;;;;;4981564;28;20395;-77
2021/12/02 03:53:23;;;;;;;4.30;2.65;;;;;;;;;;4975639;28;20050;-77
2021/12/02 03:55:49;;;;;;;4.93;3.10;;;;;;;;;;4978940;28;20047;-76
2021/12/02 03:58:15;;;;;;;4.90;2.97;;;;;;;;;;4980717;28;20031;-76
2021/12/02 04:00:41;;;;;;;5.32;2.78;;;;;;;;;;4974689;28;20034;-75
2021/12/02 04:03:07;;;;;;;6.82;2.85;;;;;;;;;;4975632;28;20031;-75
2021/12/02 04:05:33;;;;;;;3.50;2.63;;;;;;;;;;4963385;28;20108;-77
2021/12/02 04:08:00;;;;;;;4.25;2.55;;;;;;;;;;4964468;28;20035;-75
2021/12/02 04:10:26;;;;;;;6.80;2.53;;;;;;;;;;4963258;28;20035;-76
2021/12/02 04:15:45;;;;;;;4.50;2.28;;;;;;;;;;4977814;28;20396;-76
2021/12/02 04:18:13;;;;;;;4.03;2.38;;;;;;;;;;4962822;28;20490;-77
2021/12/02 04:20:39;;;;;;;4.55;2.45;;;;;;;;;;4964113;28;20019;-75
2021/12/02 04:23:05;;;;;;;2.72;2.00;;;;;;;;;;4975695;28;20022;-76
2021/12/02 04:25:33;;;;;;;5.40;2.35;;;;;;;;;;4979427;28;20046;-75
2021/12/02 04:27:59;;;;;;;3.65;2.20;;;;;;;;;;4963777;28;20051;-76
2021/12/02 04:30:27;;;;;;;7.22;2.40;;;;;;;;;;4969939;28;20032;-75
2021/12/02 04:32:55;;;;;;;3.15;2.22;;;;;;;;;;4969341;28;20028;-77
2021/12/02 04:35:21;;;;;;;7.85;2.50;;;;;;;;;;4967077;28;20109;-75
2021/12/02 04:37:51;;;;;;;3.97;2.53;;;;;;;;;;4979520;28;20045;-76
2021/12/02 04:40:18;;;;;;;2.78;2.30;;;;;;;;;;4971338;28;20031;-76
2021/12/02 04:42:45;;;;;;;3.03;2.35;;;;;;;;;;4963726;28;20035;-77
2021/12/02 04:45:11;;;;;;;4.78;2.97;;;;;;;;;;4964910;28;20045;-77
2021/12/02 04:47:37;;;;;;;4.32;2.67;;;;;;;;;;4964110;28;20051;-78
2021/12/02 04:50:04;;;;;;;6.65;3.90;;;;;;;;;;4964154;28;20015;-77
2021/12/02 04:52:31;;;;;;;4.75;2.63;;;;;;;;;;4961238;28;20129;-77
2021/12/02 04:54:57;;;;;;;6.82;3.03;;;;;;;;;;4954670;29;20381;-77
2021/12/02 04:57:23;;;;;;;9.20;3.22;;;;;;;;;;4974166;28;20035;-76
2021/12/02 04:59:49;;;;;;;4.32;2.60;;;;;;;;;;4979070;28;20026;-76
2021/12/02 05:02:15;;;;;;;3.65;2.45;;;;;;;;;;4974511;28;20044;-75
2021/12/02 05:04:41;;;;;;;4.38;2.80;;;;;;;;;;4958933;29;20493;-76
2021/12/02 05:07:07;;;;;;;7.72;5.40;;;;;;;;;;4962419;28;20046;-75
2021/12/02 05:09:33;;;;;;;4.47;2.75;;;;;;;;;;4977606;28;20039;-75
2021/12/02 05:11:59;;;;;;;5.60;2.90;;;;;;;;;;4967645;28;20051;-75
2021/12/02 05:14:25;;;;;;;6.25;2.97;;;;;;;;;;4958917;29;20027;-75
2021/12/02 05:16:51;;;;;;;2.78;2.33;;;;;;;;;;4958731;29;20033;-75
2021/12/02 05:19:17;;;;;;;3.63;2.50;;;;;;;;;;4958572;29;20038;-75
2021/12/02 05:21:44;;;;;;;8.27;3.00;;;;;;;;;;4963823;28;20078;-75
2021/12/02 05:24:10;;;;;;;3.47;2.40;;;;;;;;;;4974930;28;20508;-76
2021/12/02 05:26:41;;;;;;;4.95;2.30;;;;;;;;;;4977658;28;20046;-75
2021/12/02 05:29:07;;;;;;;2.97;2.50;;;;;;;;;;4977900;28;20508;-75
2021/12/02 05:31:33;;;;;;;7.72;2.78;;;;;;;;;;4977793;28;20031;-75
2021/12/02 05:33:59;;;;;;;6.57;2.50;;;;;;;;;;4976560;28;20105;-75
2021/12/02 05:36:25;;;;;;;6.40;3.28;;;;;;;;;;4975132;28;20715;-75
2021/12/02 05:38:51;;;;;;;6.22;3.55;;;;;;;;;;4964864;28;20102;-75
2021/12/02 05:41:18;;;;;;;7.70;3.72;;;;;;;;;;4976744;28;20034;-75
2021/12/02 05:43:44;;;;;;;5.45;3.28;;;;;;;;;;4976315;28;20031;-75
2021/12/02 05:46:11;;;;;;;5.30;2.60;;;;;;;;;;4966376;28;20047;-75
2021/12/02 05:48:39;;;;;;;4.85;2.83;;;;;;;;;;4963335;28;20042;-75
2021/12/02 05:51:05;;;;;;;3.35;2.50;;;;;;;;;;4972933;28;20026;-76
2021/12/02 05:53:31;;;;;;;6.88;3.38;;;;;;;;;;4960733;28;20040;-76
2021/12/02 05:55:57;;;;;;;3.97;2.55;;;;;;;;;;4973638;28;20488;-77
2021/12/02 05:58:28;;;;;;;7.82;3.08;;;;;;;;;;4969714;28;20405;-79
2021/12/02 06:00:54;;;;;;;3.88;2.67;;;;;;;;;;4972161;28;20453;-72
2021/12/02 06:03:20;;;;;;;6.10;3.45;;;;;;;;;;4978330;28;20038;-76
2021/12/02 06:05:49;;;;;;;13.57;5.78;;;;;;;;;;4986682;28;20143;-77
2021/12/02 06:08:28;;;;;;;11.55;4.22;;;;;;;;;;4983885;28;20031;-81
2021/12/02 06:10:57;;;;;;;5.00;2.90;;;;;;;;;;4989919;28;20027;-78
2021/12/02 06:13:35;;;;;;;9.23;4.63;;;;;;;;;;4991905;28;20477;-80
2021/12/02 06:16:03;;;;;;;12.98;11.68;;;;;;;;;;4983094;28;20023;-78
2021/12/02 06:18:29;;;;;;;8.15;5.85;;;;;;;;;;4972710;28;20015;-80
2021/12/02 06:20:55;;;;;;;15.05;8.75;;;;;;;;;;4988169;28;20010;-76
2021/12/02 06:23:23;;;;;;;9.32;4.85;;;;;;;;;;4985398;28;20477;-77
2021/12/02 06:25:55;;;;;;;5.38;3.65;;;;;;;;;;4985943;28;20500;-79
2021/12/02 06:28:21;;;;;;;24.42;20.45;;;;;;;;;;4971930;28;20081;-77
2021/12/02 06:30:47;;;;;;;6.60;3.83;;;;;;;;;;4969714;28;20103;-74
2021/12/02 06:33:15;;;;;;;3.70;2.70;;;;;;;;;;4978105;28;20477;-76
2021/12/02 06:35:42;;;;;;;6.45;4.47;;;;;;;;;;4984668;28;20042;-77
2021/12/02 06:38:11;;;;;;;3.75;2.50;;;;;;;;;;4975861;28;20027;-75
2021/12/02 06:40:38;;;;;;;6.78;3.15;;;;;;;;;;4980699;28;20050;-75
2021/12/02 06:43:05;;;;;;;3.10;2.63;;;;;;;;;;4985321;28;20023;-74
2021/12/02 06:45:32;;;;;;;3.35;2.45;;;;;;;;;;4997205;28;20014;-82
2021/12/02 06:48:03;;;;;;;3.45;2.50;;;;;;;;;;5002302;28;20061;-78
2021/12/02 06:50:31;;;;;;;5.40;3.20;;;;;;;;;;4971498;28;20175;-76
2021/12/02 06:53:00;;;;;;;5.95;3.30;;;;;;;;;;4980845;28;20034;-75
2021/12/02 06:55:26;;;;;;;5.68;3.17;;;;;;;;;;4985429;28;20047;-75
2021/12/02 06:57:52;;;;;;;5.40;3.90;;;;;;;;;;4977445;28;20031;-77
2021/12/02 07:00:19;;;;;;;7.07;2.40;;;;;;;;;;4964678;28;20042;-78
2021/12/02 07:02:53;;;;;;;4.25;2.72;;;;;;;;;;4990638;28;20730;-79
2021/12/02 07:05:22;;;;;;;4.35;2.88;;;;;;;;;;4984433;28;20109;-77
2021/12/02 07:07:50;;;;;;;9.25;3.72;;;;;;;;;;4977217;28;20075;-76
2021/12/02 07:10:18;;;;;;;5.40;3.05;;;;;;;;;;4966938;28;20083;-75
2021/12/02 07:12:47;;;;;;;4.85;3.40;;;;;;;;;;4976652;28;20062;-76
2021/12/02 07:15:24;;;;;;;8.13;3.70;;;;;;;;;;4972999;28;20019;-78
2021/12/02 07:17:55;;;;;;;10.00;4.10;;;;;;;;;;4998795;28;20049;-77
2021/12/02 07:20:26;;;;;;;6.00;3.13;;;;;;;;;;4975641;28;20085;-76
2021/12/02 07:22:52;;;;;;;6.57;3.40;;;;;;;;;;4949752;28;20066;-77
2021/12/02 07:25:23;;;;;;;7.85;3.90;;;;;;;;;;4980419;28;20059;-76
2021/12/02 07:27:49;;;;;;;3.83;2.95;;;;;;;;;;4983404;28;20489;-79
2021/12/02 07:30:15;;;;;;;5.35;3.05;;;;;;;;;;4957039;29;20050;-71
2021/12/02 07:32:42;;;;;;;8.05;3.20;;;;;;;;;;4977938;28;20023;-76
2021/12/02 07:35:10;;;;;;;8.13;3.50;;;;;;;;;;4966980;28;20033;-81
2021/12/02 07:37:40;;;;;;;8.40;3.60;;;;;;;;;;4986151;28;20050;-79
2021/12/02 07:40:10;;;;;;;6.63;3.00;;;;;;;;;;4993817;28;20029;-79
2021/12/02 07:42:41;;;;;;;8.88;3.50;;;;;;;;;;4978473;28;20046;-79
2021/12/02 07:45:11;;;;;;;7.37;3.30;;;;;;;;;;4996536;28;20027;-80
2021/12/02 07:47:39;;;;;;;7.25;4.03;;;;;;;;;;4986272;28;20268;-79
2021/12/02 07:50:16;;;;;;;8.63;5.20;;;;;;;;;;4982502;28;20042;-79
2021/12/02 07:53:03;;;;;;;10.75;4.93;;;;;;;;;;5017974;28;20038;-80
2021/12/02 07:55:40;;;;;;;7.18;4.28;;;;;;;;;;4986578;28;20031;-80
2021/12/02 07:58:15;;;;;;;9.57;5.20;;;;;;;;;;4985179;28;20058;-81
2021/12/02 08:00:46;;;;;;;8.52;4.80;;;;;;;;;;5002701;28;20042;-79
2021/12/02 08:03:37;;;;;;;13.70;6.03;;;;;;;;;;4956874;29;20015;-80
2021/12/02 08:06:13;;;;;;;8.25;4.45;;;;;;;;;;4910996;29;20040;-80
2021/12/02 08:08:57;;;;;;;7.15;4.35;;;;;;;;;;4919901;29;20473;-80
2021/12/02 08:11:26;;;;;;;6.47;3.60;;;;;;;;;;4916780;29;20069;-80
2021/12/02 08:13:56;;;;;;;6.45;3.70;;;;;;;;;;4898829;29;20041;-79
2021/12/02 08:16:23;;;;;;;7.45;4.13;;;;;;;;;;4896097;29;20110;-79
2021/12/02 08:18:50;;;;;;;9.65;4.15;;;;;;;;;;4897789;29;20142;-79
2021/12/02 08:21:16;;;;;;;14.35;5.57;;;;;;;;;;4902999;29;20032;-79
2021/12/02 08:23:42;;;;;;;6.90;3.75;;;;;;;;;;4895005;29;20056;-79
2021/12/02 08:26:13;;;;;;;7.55;3.42;;;;;;;;;;4898015;29;20052;-80
2021/12/02 08:28:40;;;;;;;6.97;4.50;;;;;;;;;;4904917;29;20056;-79
2021/12/02 08:31:08;;;;;;;10.63;5.50;;;;;;;;;;4896000;29;20029;-80
2021/12/02 08:33:36;;;;;;;12.57;4.90;;;;;;;;;;4913473;29;20063;-80
2021/12/02 08:36:03;;;;;;;13.75;5.78;;;;;;;;;;4897550;29;20041;-80
2021/12/02 08:38:35;;;;;;;18.35;8.63;;;;;;;;;;4896734;29;20044;-80
2021/12/02 08:41:24;;;;;;;16.67;7.20;;;;;;;;;;4913701;29;20025;-80
2021/12/02 08:43:50;;;;;;;10.98;4.78;;;;;;;;;;4911840;29;20041;-79
2021/12/02 08:46:23;;;;;;;8.93;5.10;;;;;;;;;;4929925;29;20134;-80
2021/12/02 08:49:00;;;;;;;9.70;5.60;;;;;;;;;;4958661;29;20043;-80
2021/12/02 08:51:28;;;;;;;10.15;5.30;;;;;;;;;;4973817;29;20027;-80
2021/12/02 08:53:56;;;;;;;9.10;4.75;;;;;;;;;;4976182;29;20057;-80
2021/12/02 08:56:24;;;;;;;8.55;4.25;;;;;;;;;;4957640;29;20116;-79
2021/12/02 08:59:16;;;;;;;6.10;3.92;;;;;;;;;;4957764;29;20067;-80
2021/12/02 09:01:45;;;;;;;10.60;5.20;;;;;;;;;;4956819;28;20042;-79
2021/12/02 09:04:15;;;;;;;12.77;4.93;;;;;;;;;;4958082;29;20035;-80
2021/12/02 09:07:03;;;;;;;9.05;4.10;;;;;;;;;;4976995;29;20027;-80
2021/12/02 09:09:54;;;;;;;6.43;3.00;;;;;;;;;;4977905;29;20120;-81
2021/12/02 09:12:42;;;;;;;7.28;3.53;;;;;;;;;;4971079;29;20038;-81
2021/12/02 09:15:33;;;;;;;9.10;3.80;;;;;;;;;;4961738;29;20067;-80
2021/12/02 09:21:29;;;;;;;;;;;;;;;;;;4959033;29;20035;-81
2021/12/02 09:27:14;;;;;;;8.52;4.18;;;;;;;;;;4958697;29;20082;-81
2021/12/02 09:30:06;;;;;;;7.97;4.05;;;;;;;;;;4902265;29;20033;-81
2021/12/02 09:32:54;;;;;;;9.27;4.50;;;;;;;;;;4889781;29;20017;-81
2021/12/02 09:35:40;;;;;;;8.20;4.32;;;;;;;;;;4901605;29;20025;-79
2021/12/02 09:38:10;;;;;;;9.48;5.10;;;;;;;;;;4898528;29;20051;-79
2021/12/02 09:43:46;;;;;;;;;;;;;;;;;;4882925;29;20063;-80
2021/12/02 09:46:20;;;;;;;7.07;3.83;;;;;;;;;;4882819;29;19908;-79
2021/12/02 09:48:51;;;;;;;7.32;3.90;;;;;;;;;;4885609;29;20051;-80
2021/12/02 09:51:35;;;;;;;7.63;3.40;;;;;;;;;;4883989;29;20037;-79
2021/12/02 09:54:22;;;;;;;8.90;4.05;;;;;;;;;;4885935;29;20069;-80
2021/12/02 10:01:08;;;;;;;6.60;3.50;;;;;;;;;;4788607;29;20054;-78
2021/12/02 10:04:05;;;;;;;7.00;4.50;;;;;;;;;;4796657;29;20062;-79
2021/12/02 10:06:53;;;;;;;8.38;5.35;;;;;;;;;;4800285;30;20054;-78
2021/12/02 10:13:10;;;;;;;8.23;5.13;;;;;;;;;;4777043;30;20050;-80
2021/12/02 10:15:55;;;;;;;8.82;4.90;;;;;;;;;;4785986;29;20036;-78
2021/12/02 10:18:25;;;;;;;8.98;4.82;;;;;;;;;;4782765;29;20047;-76
2021/12/02 10:20:52;;;;;;;11.13;4.82;;;;;;;;;;4765204;30;20043;-78
2021/12/02 10:41:21;;;;;;;8.45;4.72;;;;;;;;;;5027915;23;20041;-79
2021/12/02 10:44:07;;;;;;;7.60;4.13;;;;;;;;;;4985871;28;20035;-77
2021/12/02 10:46:35;;;;;;;10.52;4.88;;;;;;;;;;4987063;28;20038;-77
2021/12/02 10:49:03;;;;;;;9.18;4.90;;;;;;;;;;4985939;28;20496;-79
2021/12/02 10:52:01;;;;;;;13.00;5.65;;;;;;;;;;4986236;28;20033;-75
2021/12/02 10:54:28;;;;;;;9.90;5.18;;;;;;;;;;4925679;29;20047;-77
2021/12/02 10:56:56;;;;;;;13.05;5.20;;;;;;;;;;4928304;29;20036;-77
2021/12/02 11:04:42;;;;;;;13.60;4.93;;;;;;;;;;5475336;23;20481;-75
2021/12/02 11:07:11;;;;;;;14.07;5.47;;;;;;;;;;4933546;29;20078;-76
2021/12/02 11:09:39;;;;;;;12.07;4.60;;;;;;;;;;4917513;29;20413;-76
2021/12/02 11:15:13;;;;;;;7.45;4.50;;;;;;;;;;4951120;28;20047;-77
2021/12/02 11:17:42;;;;;;;7.22;4.68;;;;;;;;;;4931584;29;20032;-74
2021/12/02 11:20:10;;;;;;;8.65;4.45;;;;;;;;;;4940810;29;20035;-76
2021/12/02 11:22:36;;;;;;;8.95;4.20;;;;;;;;;;4916569;29;20392;-77
2021/12/02 11:25:04;;;;;;;12.40;4.47;;;;;;;;;;4939192;29;20111;-75
2021/12/02 11:27:52;;;;;;;8.43;4.70;;;;;;;;;;4945618;29;20477;-78
2021/12/02 11:30:18;;;;;;;10.25;4.75;;;;;;;;;;4939546;29;20055;-76
2021/12/02 11:32:46;;;;;;;10.43;6.50;;;;;;;;;;4941943;29;20091;-76
2021/12/02 11:35:15;;;;;;;7.00;4.38;;;;;;;;;;4937147;29;20063;-76
2021/12/02 11:37:43;;;;;;;8.18;4.18;;;;;;;;;;4939258;29;20027;-74
2021/12/02 11:40:11;;;;;;;6.68;3.95;;;;;;;;;;4943199;29;20031;-75
2021/12/02 11:42:38;;;;;;;7.97;4.50;;;;;;;;;;4942181;29;20063;-75
2021/12/02 11:45:07;;;;;;;5.60;3.90;;;;;;;;;;4937428;29;20032;-73
2021/12/02 11:47:34;;;;;;;18.33;4.97;;;;;;;;;;4936780;29;20030;-73
2021/12/02 11:50:01;;;;;;;9.00;4.40;;;;;;;;;;4937260;29;20038;-74
2021/12/02 11:52:27;;;;;;;8.98;4.35;;;;;;;;;;4936711;29;20083;-74
2021/12/02 11:54:56;;;;;;;8.63;3.70;;;;;;;;;;4936960;29;20393;-73
2021/12/02 11:57:23;;;;;;;6.13;3.20;;;;;;;;;;4938053;29;20039;-73
2021/12/02 11:59:49;;;;;;;12.40;4.47;;;;;;;;;;4937317;29;20102;-73
2021/12/02 12:02:18;;;;;;;6.60;3.80;;;;;;;;;;4936502;29;20035;-74
2021/12/02 12:04:59;;;;;;;7.45;4.20;;;;;;;;;;4937471;29;20087;-75
2021/12/02 12:07:37;;;;;;;6.40;3.80;;;;;;;;;;4936509;29;20036;-74
2021/12/02 12:10:25;;;;;;;6.25;3.83;;;;;;;;;;4934852;29;20079;-74
2021/12/02 12:12:52;;;;;;;6.43;3.25;;;;;;;;;;4936342;29;20027;-74
2021/12/02 12:15:32;;;;;;;8.45;4.95;;;;;;;;;;4936892;29;20090;-74
2021/12/02 12:17:59;;;;;;;8.65;4.25;;;;;;;;;;4933946;29;20076;-73
2021/12/02 12:20:43;;;;;;;6.50;3.42;;;;;;;;;;4942707;29;20035;-78
2021/12/02 12:23:28;;;;;;;6.68;4.15;;;;;;;;;;4950522;29;20046;-75
2021/12/02 12:26:13;;;;;;;8.70;5.28;;;;;;;;;;4957769;29;20016;-77
2021/12/02 12:28:58;;;;;;;10.75;4.05;;;;;;;;;;4933123;29;20051;-75
2021/12/02 12:31:24;;;;;;;9.30;4.88;;;;;;;;;;4946330;29;20032;-74
2021/12/02 12:33:50;;;;;;;8.63;5.35;;;;;;;;;;4939989;29;20070;-75
2021/12/02 12:36:40;;;;;;;11.52;7.38;;;;;;;;;;4941773;29;20111;-76
2021/12/02 12:39:19;;;;;;;9.77;6.05;;;;;;;;;;4944278;29;20027;-73
2021/12/02 12:42:06;;;;;;;9.07;5.20;;;;;;;;;;4937253;29;20027;-74
2021/12/02 12:44:45;;;;;;;7.20;3.38;;;;;;;;;;4931435;29;20055;-74
2021/12/02 12:47:11;;;;;;;10.52;4.60;;;;;;;;;;4937045;29;20027;-74
2021/12/02 12:49:37;;;;;;;7.82;4.35;;;;;;;;;;4936466;29;20065;-75
2021/12/02 12:52:14;;;;;;;9.93;5.70;;;;;;;;;;4936945;29;20024;-74
2021/12/02 12:54:40;;;;;;;10.55;4.20;;;;;;;;;;4919439;29;20040;-74
2021/12/02 12:57:07;;;;;;;8.15;3.85;;;;;;;;;;4937459;29;20020;-74
2021/12/02 12:59:50;;;;;;;9.18;4.97;;;;;;;;;;4935717;29;20043;-74
2021/12/02 13:02:16;;;;;;;4.97;3.58;;;;;;;;;;4935894;29;20498;-74
2021/12/02 13:04:54;;;;;;;10.48;6.80;;;;;;;;;;4936020;29;20501;-74
2021/12/02 13:07:21;;;;;;;91.65;60.15;;;;;;;;;;4918499;29;20027;-74
2021/12/02 13:09:59;;;;;;;8.27;4.32;;;;;;;;;;4936923;29;20039;-74
2021/12/02 13:12:28;;;;;;;10.55;7.57;;;;;;;;;;4926626;29;20489;-74
2021/12/02 13:14:55;;;;;;;12.23;7.60;;;;;;;;;;4937564;29;20074;-74
2021/12/02 13:17:39;;;;;;;8.77;5.28;;;;;;;;;;4936663;29;20466;-74
2021/12/02 13:20:18;;;;;;;10.65;4.57;;;;;;;;;;4936227;29;20031;-76
2021/12/02 13:22:45;;;;;;;8.48;4.40;;;;;;;;;;4936698;29;20446;-75
2021/12/02 13:25:28;;;;;;;11.80;4.50;;;;;;;;;;4936649;29;20160;-75
2021/12/02 13:27:54;;;;;;;11.10;4.80;;;;;;;;;;4929031;29;20094;-76
2021/12/02 13:30:20;;;;;;;8.07;4.75;;;;;;;;;;4936808;29;20035;-76
2021/12/02 13:32:50;;;;;;;9.80;4.95;;;;;;;;;;4946272;29;20544;-77
2021/12/02 13:35:24;;;;;;;10.30;4.70;;;;;;;;;;4940194;29;20027;-77
2021/12/02 13:38:00;;;;;;;9.95;5.30;;;;;;;;;;4936166;29;20027;-76
2021/12/02 13:40:33;;;;;;;11.27;6.53;;;;;;;;;;4944739;29;20019;-76
2021/12/02 13:42:59;;;;;;;13.02;7.38;;;;;;;;;;4936956;29;20179;-76
2021/12/02 13:45:26;;;;;;;11.52;7.32;;;;;;;;;;4920934;29;20040;-76
2021/12/02 13:48:05;;;;;;;14.10;7.32;;;;;;;;;;4936669;29;20043;-76
2021/12/02 13:50:41;;;;;;;12.82;7.22;;;;;;;;;;4944588;29;20612;-76
2021/12/02 13:53:08;;;;;;;12.60;6.72;;;;;;;;;;4937064;29;20163;-77
2021/12/02 13:55:38;;;;;;;11.80;6.60;;;;;;;;;;4937744;29;20032;-77
2021/12/02 14:00:48;;;;;;;17.70;7.38;;;;;;;;;;4939465;29;20863;-76
2021/12/02 14:03:16;;;;;;;13.13;7.20;;;;;;;;;;4935411;29;20027;-76
2021/12/02 14:05:50;;;;;;;13.18;7.47;;;;;;;;;;4938350;29;20056;-77
2021/12/02 14:08:19;;;;;;;19.05;10.15;;;;;;;;;;4940192;29;20043;-77
2021/12/02 14:10:45;;;;;;;17.83;9.07;;;;;;;;;;4921041;29;20038;-77
2021/12/02 14:13:22;;;;;;;18.63;9.20;;;;;;;;;;4935068;29;20176;-76
2021/12/02 14:15:52;;;;;;;15.85;9.38;;;;;;;;;;4934941;29;20051;-76
2021/12/02 14:18:29;;;;;;;15.95;9.10;;;;;;;;;;4916090;29;20446;-77
2021/12/02 14:21:02;;;;;;;19.67;9.80;;;;;;;;;;4935595;29;20019;-77
2021/12/02 14:23:29;;;;;;;19.88;9.38;;;;;;;;;;4937188;29;20023;-77
2021/12/02 14:25:56;;;;;;;20.95;8.88;;;;;;;;;;4936751;29;20074;-77
2021/12/02 14:28:22;;;;;;;14.85;8.50;;;;;;;;;;4936293;29;20067;-77
2021/12/02 14:30:58;;;;;;;20.67;9.07;;;;;;;;;;4936446;29;20027;-76
2021/12/02 14:33:25;;;;;;;16.08;7.72;;;;;;;;;;4936143;29;20049;-76
2021/12/02 14:35:53;;;;;;;19.33;9.52;;;;;;;;;;4938295;29;20106;-76
2021/12/02 14:38:24;;;;;;;14.75;7.60;;;;;;;;;;4936839;29;20016;-76
2021/12/02 14:40:56;;;;;;;15.88;7.93;;;;;;;;;;4931025;29;20036;-76
2021/12/02 14:43:26;;;;;;;14.52;8.07;;;;;;;;;;4937372;29;20116;-77
2021/12/02 14:46:09;;;;;;;14.13;8.25;;;;;;;;;;4936108;29;20020;-76
2021/12/02 14:48:36;;;;;;;15.30;7.30;;;;;;;;;;4936058;29;20438;-76
2021/12/02 14:51:04;;;;;;;20.02;10.35;;;;;;;;;;4935427;29;20038;-77
2021/12/02 14:53:33;;;;;;;18.58;9.57;;;;;;;;;;4938726;29;20027;-76
2021/12/02 14:56:05;;;;;;;14.88;8.60;;;;;;;;;;4936389;29;20030;-77
2021/12/02 14:58:31;;;;;;;13.05;7.88;;;;;;;;;;4937341;29;20032;-76
2021/12/02 15:01:11;;;;;;;12.73;6.90;;;;;;;;;;4922673;29;20386;-75
2021/12/02 15:03:37;;;;;;;10.15;6.78;;;;;;;;;;4923810;29;20055;-77
2021/12/02 15:06:03;;;;;;;10.18;5.93;;;;;;;;;;4941108;29;20048;-77
2021/12/02 15:08:33;;;;;;;12.98;8.25;;;;;;;;;;4942598;29;20036;-77
2021/12/02 15:11:00;;;;;;;12.82;7.68;;;;;;;;;;4940211;29;20020;-76
2021/12/02 15:13:38;;;;;;;16.63;7.22;;;;;;;;;;4940640;29;20036;-76
2021/12/02 15:16:05;;;;;;;14.45;7.93;;;;;;;;;;4940441;29;20019;-75
2021/12/02 15:18:31;;;;;;;17.58;8.23;;;;;;;;;;4941293;29;20020;-76
2021/12/02 15:21:00;;;;;;;14.35;8.60;;;;;;;;;;4941145;29;20027;-76
2021/12/02 15:23:30;;;;;;;16.02;9.00;;;;;;;;;;4928937;29;20038;-77
2021/12/02 15:26:05;;;;;;;15.05;7.78;;;;;;;;;;4934888;29;20024;-77
2021/12/02 15:28:32;;;;;;;14.13;8.45;;;;;;;;;;4933413;29;20035;-77
2021/12/02 15:31:06;;;;;;;15.60;7.80;;;;;;;;;;4942754;29;20028;-77
2021/12/02 15:33:37;;;;;;;14.10;6.50;;;;;;;;;;4941845;29;20024;-77
2021/12/02 15:36:11;;;;;;;12.25;7.78;;;;;;;;;;4943754;29;20035;-77
2021/12/02 15:38:39;;;;;;;19.55;10.02;;;;;;;;;;4943901;29;20031;-78
2021/12/02 15:41:07;;;;;;;13.57;7.72;;;;;;;;;;4943758;29;20031;-78
2021/12/02 15:43:39;;;;;;;29.20;15.52;;;;;;;;;;4943309;29;20039;-78
2021/12/02 15:46:05;;;;;;;24.08;14.60;;;;;;;;;;4921417;29;20036;-78
2021/12/02 15:48:31;;;;;;;19.98;10.20;;;;;;;;;;4938251;29;20035;-75
2021/12/02 15:50:58;;;;;;;13.18;7.82;;;;;;;;;;4939905;29;20058;-76
2021/12/02 15:53:25;;;;;;;11.77;7.22;;;;;;;;;;4937077;29;20471;-75
2021/12/02 15:55:52;;;;;;;12.52;6.97;;;;;;;;;;4929815;29;20110;-75
2021/12/02 15:58:19;;;;;;;14.02;7.50;;;;;;;;;;4939176;29;20030;-76